KGEY

South Big Horn County Airport

Greybull, Wyoming, USA
METAR KGEY 230853Z AUTO 26003KT 10SM CLR 01/M03 A3012 RMK AO2 SLP203 T00111033 58008
Observed Flight Rules
Oct-23 @ 08:53 UTC (46 minutes ago) Visual Flight Rules
Wind Visibility Clouds
260° at 3 knots 10 miles
  • Clear skies
Temperatures Readings
Current 1°C / 34°F
Dewpoint -3°C / 27°F
Humidity 75%
Altimeter 30.12" Hg
Pressure 1020.3 hPa
Elevation 1191
METAR KGEY 230853Z AUTO 26003KT 10SM CLR 01/M03 A3012 RMK AO2 SLP203 T00111033 58008
Observed Flight Rules
Oct-23 @ 08:53 UTC
(46 minutes ago)
VFR
Wind Visibility
260° at 3 knots 10 miles
Clouds
  • Clear skies
Temperature Dewpoint
1°C / 34°F -3°C / 27°F
Humidity Altimeter Pressure
75% 30.12" Hg 1020.3 hPa